sensor_id;sensor_type;location;lat;lon;timestamp;pressure;altitude;pressure_sealevel;temperature
63220;BMP180;49320;52.512;13.448;2023-03-29T00:02:11;101631.00;;;11.10
63220;BMP180;49320;52.512;13.448;2023-03-29T00:04:38;101643.00;;;11.10
63220;BMP180;49320;52.512;13.448;2023-03-29T00:07:08;101634.00;;;11.10
63220;BMP180;49320;52.512;13.448;2023-03-29T00:09:34;101626.00;;;11.00
63220;BMP180;49320;52.512;13.448;2023-03-29T00:12:03;101621.00;;;11.00
63220;BMP180;49320;52.512;13.448;2023-03-29T00:14:29;101628.00;;;11.00
63220;BMP180;49320;52.512;13.448;2023-03-29T00:16:57;101635.00;;;11.00
63220;BMP180;49320;52.512;13.448;2023-03-29T00:19:25;101628.00;;;11.00
63220;BMP180;49320;52.512;13.448;2023-03-29T00:21:52;101622.00;;;11.00
63220;BMP180;49320;52.512;13.448;2023-03-29T00:24:19;101619.00;;;11.00
63220;BMP180;49320;52.512;13.448;2023-03-29T00:26:47;101609.00;;;11.00
63220;BMP180;49320;52.512;13.448;2023-03-29T00:29:14;101619.00;;;11.00
63220;BMP180;49320;52.512;13.448;2023-03-29T00:31:41;101601.00;;;10.90
63220;BMP180;49320;52.512;13.448;2023-03-29T00:34:08;101615.00;;;10.90
63220;BMP180;49320;52.512;13.448;2023-03-29T00:36:34;101619.00;;;10.90
63220;BMP180;49320;52.512;13.448;2023-03-29T00:39:01;101609.00;;;10.90
63220;BMP180;49320;52.512;13.448;2023-03-29T00:41:28;101607.00;;;10.90
63220;BMP180;49320;52.512;13.448;2023-03-29T00:44:02;101606.00;;;10.90
63220;BMP180;49320;52.512;13.448;2023-03-29T00:46:29;101602.00;;;10.90
63220;BMP180;49320;52.512;13.448;2023-03-29T00:49:05;101600.00;;;10.90
63220;BMP180;49320;52.512;13.448;2023-03-29T00:51:35;101593.00;;;10.80
63220;BMP180;49320;52.512;13.448;2023-03-29T00:54:05;101592.00;;;10.80
63220;BMP180;49320;52.512;13.448;2023-03-29T00:56:38;101589.00;;;10.80
63220;BMP180;49320;52.512;13.448;2023-03-29T00:59:17;101592.00;;;10.80
63220;BMP180;49320;52.512;13.448;2023-03-29T01:01:49;101582.00;;;10.80
63220;BMP180;49320;52.512;13.448;2023-03-29T01:04:27;101575.00;;;10.80
63220;BMP180;49320;52.512;13.448;2023-03-29T01:07:03;101573.00;;;10.80
63220;BMP180;49320;52.512;13.448;2023-03-29T01:09:36;101568.00;;;10.80
63220;BMP180;49320;52.512;13.448;2023-03-29T01:12:12;101571.00;;;10.80
63220;BMP180;49320;52.512;13.448;2023-03-29T01:15:00;101567.00;;;10.80
63220;BMP180;49320;52.512;13.448;2023-03-29T01:17:27;101562.00;;;10.80
63220;BMP180;49320;52.512;13.448;2023-03-29T01:20:23;101560.00;;;10.80
63220;BMP180;49320;52.512;13.448;2023-03-29T01:23:16;101552.00;;;10.80
63220;BMP180;49320;52.512;13.448;2023-03-29T01:28:44;101545.00;;;10.90
63220;BMP180;49320;52.512;13.448;2023-03-29T01:31:21;101538.00;;;10.80
63220;BMP180;49320;52.512;13.448;2023-03-29T01:33:57;101534.00;;;10.80
63220;BMP180;49320;52.512;13.448;2023-03-29T01:36:36;101526.00;;;10.80
63220;BMP180;49320;52.512;13.448;2023-03-29T01:39:06;101527.00;;;10.80
63220;BMP180;49320;52.512;13.448;2023-03-29T01:41:50;101521.00;;;10.80
63220;BMP180;49320;52.512;13.448;2023-03-29T01:44:35;101518.00;;;10.80
63220;BMP180;49320;52.512;13.448;2023-03-29T01:47:41;101506.00;;;10.80
63220;BMP180;49320;52.512;13.448;2023-03-29T01:53:07;101506.00;;;10.80
63220;BMP180;49320;52.512;13.448;2023-03-29T01:55:40;101497.00;;;10.80
63220;BMP180;49320;52.512;13.448;2023-03-29T01:58:11;101493.00;;;10.80
63220;BMP180;49320;52.512;13.448;2023-03-29T02:00:40;101490.00;;;10.80
63220;BMP180;49320;52.512;13.448;2023-03-29T02:03:09;101486.00;;;10.70
63220;BMP180;49320;52.512;13.448;2023-03-29T02:05:38;101483.00;;;10.70
63220;BMP180;49320;52.512;13.448;2023-03-29T02:08:08;101476.00;;;10.70
63220;BMP180;49320;52.512;13.448;2023-03-29T02:10:37;101478.00;;;10.70
63220;BMP180;49320;52.512;13.448;2023-03-29T02:13:04;101472.00;;;10.70
63220;BMP180;49320;52.512;13.448;2023-03-29T02:15:31;101476.00;;;10.70
63220;BMP180;49320;52.512;13.448;2023-03-29T02:17:58;101476.00;;;10.70
63220;BMP180;49320;52.512;13.448;2023-03-29T02:20:32;101469.00;;;10.70
63220;BMP180;49320;52.512;13.448;2023-03-29T02:23:27;101474.00;;;10.70
63220;BMP180;49320;52.512;13.448;2023-03-29T02:25:55;101465.00;;;10.70
63220;BMP180;49320;52.512;13.448;2023-03-29T02:28:24;101456.00;;;10.70
63220;BMP180;49320;52.512;13.448;2023-03-29T02:31:04;101461.00;;;10.70
63220;BMP180;49320;52.512;13.448;2023-03-29T02:33:41;101447.00;;;10.70
63220;BMP180;49320;52.512;13.448;2023-03-29T02:36:33;101442.00;;;10.70
63220;BMP180;49320;52.512;13.448;2023-03-29T02:39:04;101440.00;;;10.70
63220;BMP180;49320;52.512;13.448;2023-03-29T02:41:32;101442.00;;;10.70
63220;BMP180;49320;52.512;13.448;2023-03-29T02:44:00;101427.00;;;10.70
63220;BMP180;49320;52.512;13.448;2023-03-29T02:46:30;101428.00;;;10.70
63220;BMP180;49320;52.512;13.448;2023-03-29T02:48:58;101433.00;;;10.70
63220;BMP180;49320;52.512;13.448;2023-03-29T02:51:32;101425.00;;;10.70
63220;BMP180;49320;52.512;13.448;2023-03-29T02:54:10;101428.00;;;10.70
63220;BMP180;49320;52.512;13.448;2023-03-29T02:56:43;101420.00;;;10.60
63220;BMP180;49320;52.512;13.448;2023-03-29T02:59:11;101425.00;;;10.60
63220;BMP180;49320;52.512;13.448;2023-03-29T03:01:40;101416.00;;;10.60
63220;BMP180;49320;52.512;13.448;2023-03-29T03:04:11;101425.00;;;10.50
63220;BMP180;49320;52.512;13.448;2023-03-29T03:06:39;101417.00;;;10.50
63220;BMP180;49320;52.512;13.448;2023-03-29T03:09:06;101412.00;;;10.50
63220;BMP180;49320;52.512;13.448;2023-03-29T03:11:34;101418.00;;;10.50
63220;BMP180;49320;52.512;13.448;2023-03-29T03:14:00;101410.00;;;10.40
63220;BMP180;49320;52.512;13.448;2023-03-29T03:16:27;101403.00;;;10.40
63220;BMP180;49320;52.512;13.448;2023-03-29T03:18:54;101407.00;;;10.40
63220;BMP180;49320;52.512;13.448;2023-03-29T03:21:22;101399.00;;;10.30
63220;BMP180;49320;52.512;13.448;2023-03-29T03:23:49;101395.00;;;10.30
63220;BMP180;49320;52.512;13.448;2023-03-29T03:26:16;101397.00;;;10.30
63220;BMP180;49320;52.512;13.448;2023-03-29T03:28:44;101387.00;;;10.20
63220;BMP180;49320;52.512;13.448;2023-03-29T03:31:13;101387.00;;;10.20
63220;BMP180;49320;52.512;13.448;2023-03-29T03:33:40;101386.00;;;10.10
63220;BMP180;49320;52.512;13.448;2023-03-29T03:36:09;101391.00;;;10.10
63220;BMP180;49320;52.512;13.448;2023-03-29T03:38:37;101395.00;;;10.10
63220;BMP180;49320;52.512;13.448;2023-03-29T03:41:05;101394.00;;;10.00
63220;BMP180;49320;52.512;13.448;2023-03-29T03:43:35;101388.00;;;10.00
63220;BMP180;49320;52.512;13.448;2023-03-29T03:46:02;101389.00;;;10.00
63220;BMP180;49320;52.512;13.448;2023-03-29T03:48:29;101385.00;;;10.00
63220;BMP180;49320;52.512;13.448;2023-03-29T03:50:57;101381.00;;;10.00
63220;BMP180;49320;52.512;13.448;2023-03-29T03:53:26;101378.00;;;9.90
63220;BMP180;49320;52.512;13.448;2023-03-29T03:55:54;101375.00;;;9.90
63220;BMP180;49320;52.512;13.448;2023-03-29T03:58:22;101376.00;;;9.90
63220;BMP180;49320;52.512;13.448;2023-03-29T04:00:50;101368.00;;;9.90
63220;BMP180;49320;52.512;13.448;2023-03-29T04:03:17;101373.00;;;9.90
63220;BMP180;49320;52.512;13.448;2023-03-29T04:05:46;101377.00;;;9.90
63220;BMP180;49320;52.512;13.448;2023-03-29T04:08:13;101367.00;;;9.90
63220;BMP180;49320;52.512;13.448;2023-03-29T04:10:40;101377.00;;;9.90
63220;BMP180;49320;52.512;13.448;2023-03-29T04:13:07;101368.00;;;9.90
63220;BMP180;49320;52.512;13.448;2023-03-29T04:15:34;101368.00;;;9.90
63220;BMP180;49320;52.512;13.448;2023-03-29T04:18:05;101365.00;;;9.90
63220;BMP180;49320;52.512;13.448;2023-03-29T04:20:33;101369.00;;;10.00
63220;BMP180;49320;52.512;13.448;2023-03-29T04:23:00;101370.00;;;10.00
63220;BMP180;49320;52.512;13.448;2023-03-29T04:25:27;101366.00;;;10.00
63220;BMP180;49320;52.512;13.448;2023-03-29T04:27:55;101372.00;;;10.00
63220;BMP180;49320;52.512;13.448;2023-03-29T04:30:22;101367.00;;;10.00
63220;BMP180;49320;52.512;13.448;2023-03-29T04:32:49;101371.00;;;10.00
63220;BMP180;49320;52.512;13.448;2023-03-29T04:35:16;101366.00;;;10.00
63220;BMP180;49320;52.512;13.448;2023-03-29T04:37:43;101360.00;;;10.00
63220;BMP180;49320;52.512;13.448;2023-03-29T04:40:10;101362.00;;;10.00
63220;BMP180;49320;52.512;13.448;2023-03-29T04:42:40;101356.00;;;10.00
63220;BMP180;49320;52.512;13.448;2023-03-29T04:45:14;101360.00;;;10.00
63220;BMP180;49320;52.512;13.448;2023-03-29T04:47:44;101352.00;;;10.00
63220;BMP180;49320;52.512;13.448;2023-03-29T04:50:12;101356.00;;;10.00
63220;BMP180;49320;52.512;13.448;2023-03-29T04:52:39;101355.00;;;10.00
63220;BMP180;49320;52.512;13.448;2023-03-29T04:55:07;101358.00;;;9.90
63220;BMP180;49320;52.512;13.448;2023-03-29T04:57:34;101348.00;;;9.90
63220;BMP180;49320;52.512;13.448;2023-03-29T05:00:02;101341.00;;;9.90
63220;BMP180;49320;52.512;13.448;2023-03-29T05:02:43;101349.00;;;10.00
63220;BMP180;49320;52.512;13.448;2023-03-29T05:05:12;101344.00;;;9.90
63220;BMP180;49320;52.512;13.448;2023-03-29T05:07:39;101346.00;;;10.00
63220;BMP180;49320;52.512;13.448;2023-03-29T05:10:07;101339.00;;;10.00
63220;BMP180;49320;52.512;13.448;2023-03-29T05:12:34;101334.00;;;10.00
63220;BMP180;49320;52.512;13.448;2023-03-29T05:15:04;101339.00;;;10.00
63220;BMP180;49320;52.512;13.448;2023-03-29T05:17:31;101333.00;;;10.00
63220;BMP180;49320;52.512;13.448;2023-03-29T05:19:58;101337.00;;;10.00
63220;BMP180;49320;52.512;13.448;2023-03-29T05:22:26;101335.00;;;10.00
63220;BMP180;49320;52.512;13.448;2023-03-29T05:24:53;101335.00;;;10.10
63220;BMP180;49320;52.512;13.448;2023-03-29T05:27:20;101330.00;;;10.10
63220;BMP180;49320;52.512;13.448;2023-03-29T05:29:48;101332.00;;;10.10
63220;BMP180;49320;52.512;13.448;2023-03-29T05:32:15;101322.00;;;10.10
63220;BMP180;49320;52.512;13.448;2023-03-29T05:34:42;101320.00;;;10.10
63220;BMP180;49320;52.512;13.448;2023-03-29T05:37:09;101322.00;;;10.20
63220;BMP180;49320;52.512;13.448;2023-03-29T05:39:36;101315.00;;;10.20
63220;BMP180;49320;52.512;13.448;2023-03-29T05:42:03;101322.00;;;10.30
63220;BMP180;49320;52.512;13.448;2023-03-29T05:44:31;101319.00;;;10.30
63220;BMP180;49320;52.512;13.448;2023-03-29T05:46:58;101314.00;;;10.30
63220;BMP180;49320;52.512;13.448;2023-03-29T05:49:25;101319.00;;;10.30
63220;BMP180;49320;52.512;13.448;2023-03-29T05:51:52;101315.00;;;10.40
63220;BMP180;49320;52.512;13.448;2023-03-29T05:54:24;101322.00;;;10.40
63220;BMP180;49320;52.512;13.448;2023-03-29T05:56:51;101316.00;;;10.40
63220;BMP180;49320;52.512;13.448;2023-03-29T05:59:18;101316.00;;;10.40
63220;BMP180;49320;52.512;13.448;2023-03-29T06:01:45;101310.00;;;10.50
63220;BMP180;49320;52.512;13.448;2023-03-29T06:04:13;101318.00;;;10.50
63220;BMP180;49320;52.512;13.448;2023-03-29T06:06:41;101317.00;;;10.60
63220;BMP180;49320;52.512;13.448;2023-03-29T06:09:08;101316.00;;;10.70
63220;BMP180;49320;52.512;13.448;2023-03-29T06:11:35;101309.00;;;10.70
63220;BMP180;49320;52.512;13.448;2023-03-29T06:14:02;101316.00;;;10.80
63220;BMP180;49320;52.512;13.448;2023-03-29T06:16:29;101317.00;;;10.90
63220;BMP180;49320;52.512;13.448;2023-03-29T06:18:56;101316.00;;;10.90
63220;BMP180;49320;52.512;13.448;2023-03-29T06:21:23;101315.00;;;11.00
63220;BMP180;49320;52.512;13.448;2023-03-29T06:23:52;101321.00;;;11.10
63220;BMP180;49320;52.512;13.448;2023-03-29T06:26:19;101325.00;;;11.20
63220;BMP180;49320;52.512;13.448;2023-03-29T06:28:46;101306.00;;;11.30
63220;BMP180;49320;52.512;13.448;2023-03-29T06:31:17;101305.00;;;11.40
63220;BMP180;49320;52.512;13.448;2023-03-29T06:33:45;101306.00;;;11.40
63220;BMP180;49320;52.512;13.448;2023-03-29T06:36:12;101307.00;;;11.50
63220;BMP180;49320;52.512;13.448;2023-03-29T06:38:42;101306.00;;;11.60
63220;BMP180;49320;52.512;13.448;2023-03-29T06:41:10;101302.00;;;11.70
63220;BMP180;49320;52.512;13.448;2023-03-29T06:43:38;101303.00;;;11.80
63220;BMP180;49320;52.512;13.448;2023-03-29T06:46:05;101306.00;;;11.90
63220;BMP180;49320;52.512;13.448;2023-03-29T06:48:38;101300.00;;;12.00
63220;BMP180;49320;52.512;13.448;2023-03-29T06:51:06;101300.00;;;12.10
63220;BMP180;49320;52.512;13.448;2023-03-29T06:53:34;101293.00;;;12.20
63220;BMP180;49320;52.512;13.448;2023-03-29T06:56:02;101291.00;;;12.30
63220;BMP180;49320;52.512;13.448;2023-03-29T06:58:34;101285.00;;;12.40
63220;BMP180;49320;52.512;13.448;2023-03-29T07:01:02;101286.00;;;12.50
63220;BMP180;49320;52.512;13.448;2023-03-29T07:03:30;101296.00;;;12.60
63220;BMP180;49320;52.512;13.448;2023-03-29T07:06:02;101291.00;;;12.70
63220;BMP180;49320;52.512;13.448;2023-03-29T07:08:37;101297.00;;;12.80
63220;BMP180;49320;52.512;13.448;2023-03-29T07:11:10;101292.00;;;12.90
63220;BMP180;49320;52.512;13.448;2023-03-29T07:13:40;101287.00;;;12.90
63220;BMP180;49320;52.512;13.448;2023-03-29T07:16:11;101286.00;;;12.90
63220;BMP180;49320;52.512;13.448;2023-03-29T07:18:40;101297.00;;;13.00
63220;BMP180;49320;52.512;13.448;2023-03-29T07:21:09;101303.00;;;13.00
63220;BMP180;49320;52.512;13.448;2023-03-29T07:23:38;101283.00;;;13.10
63220;BMP180;49320;52.512;13.448;2023-03-29T07:26:06;101292.00;;;13.20
63220;BMP180;49320;52.512;13.448;2023-03-29T07:28:34;101291.00;;;13.30
63220;BMP180;49320;52.512;13.448;2023-03-29T07:31:07;101298.00;;;13.40
63220;BMP180;49320;52.512;13.448;2023-03-29T07:33:37;101284.00;;;13.50
63220;BMP180;49320;52.512;13.448;2023-03-29T07:36:05;101290.00;;;13.60
63220;BMP180;49320;52.512;13.448;2023-03-29T07:38:32;101289.00;;;13.70
63220;BMP180;49320;52.512;13.448;2023-03-29T07:41:06;101290.00;;;13.80
63220;BMP180;49320;52.512;13.448;2023-03-29T07:43:34;101297.00;;;13.90
63220;BMP180;49320;52.512;13.448;2023-03-29T07:46:03;101287.00;;;13.90
63220;BMP180;49320;52.512;13.448;2023-03-29T07:48:31;101286.00;;;14.00
63220;BMP180;49320;52.512;13.448;2023-03-29T07:50:59;101290.00;;;14.10
63220;BMP180;49320;52.512;13.448;2023-03-29T07:53:27;101286.00;;;14.10
63220;BMP180;49320;52.512;13.448;2023-03-29T07:55:55;101281.00;;;14.20
63220;BMP180;49320;52.512;13.448;2023-03-29T07:58:22;101282.00;;;14.30
63220;BMP180;49320;52.512;13.448;2023-03-29T08:00:49;101278.00;;;14.30
63220;BMP180;49320;52.512;13.448;2023-03-29T08:03:16;101277.00;;;14.40
63220;BMP180;49320;52.512;13.448;2023-03-29T08:05:43;101268.00;;;14.40
63220;BMP180;49320;52.512;13.448;2023-03-29T08:08:10;101272.00;;;14.50
63220;BMP180;49320;52.512;13.448;2023-03-29T08:10:37;101272.00;;;14.50
63220;BMP180;49320;52.512;13.448;2023-03-29T08:13:07;101282.00;;;14.60
63220;BMP180;49320;52.512;13.448;2023-03-29T08:15:36;101292.00;;;14.70
63220;BMP180;49320;52.512;13.448;2023-03-29T08:18:06;101277.00;;;14.80
63220;BMP180;49320;52.512;13.448;2023-03-29T08:20:33;101290.00;;;14.90
63220;BMP180;49320;52.512;13.448;2023-03-29T08:23:00;101288.00;;;15.00
63220;BMP180;49320;52.512;13.448;2023-03-29T08:25:27;101287.00;;;15.00
63220;BMP180;49320;52.512;13.448;2023-03-29T08:27:54;101285.00;;;15.00
63220;BMP180;49320;52.512;13.448;2023-03-29T08:30:21;101278.00;;;15.00
63220;BMP180;49320;52.512;13.448;2023-03-29T08:32:47;101280.00;;;15.00
63220;BMP180;49320;52.512;13.448;2023-03-29T08:35:19;101272.00;;;15.00
63220;BMP180;49320;52.512;13.448;2023-03-29T08:37:46;101271.00;;;14.90
63220;BMP180;49320;52.512;13.448;2023-03-29T08:40:22;101269.00;;;14.90
63220;BMP180;49320;52.512;13.448;2023-03-29T08:48:55;101263.00;;;14.80
63220;BMP180;49320;52.512;13.448;2023-03-29T08:51:24;101255.00;;;14.80
63220;BMP180;49320;52.512;13.448;2023-03-29T08:54:04;101251.00;;;14.90
63220;BMP180;49320;52.512;13.448;2023-03-29T08:56:36;101243.00;;;14.90
63220;BMP180;49320;52.512;13.448;2023-03-29T08:59:19;101251.00;;;14.90
63220;BMP180;49320;52.512;13.448;2023-03-29T09:01:51;101242.00;;;14.90
63220;BMP180;49320;52.512;13.448;2023-03-29T09:04:27;101248.00;;;15.00
63220;BMP180;49320;52.512;13.448;2023-03-29T09:06:54;101238.00;;;15.00
63220;BMP180;49320;52.512;13.448;2023-03-29T09:09:27;101228.00;;;15.00
63220;BMP180;49320;52.512;13.448;2023-03-29T09:15:13;101243.00;;;15.10
63220;BMP180;49320;52.512;13.448;2023-03-29T09:17:51;101244.00;;;15.20
63220;BMP180;49320;52.512;13.448;2023-03-29T09:20:34;101237.00;;;15.40
63220;BMP180;49320;52.512;13.448;2023-03-29T09:23:37;101234.00;;;15.70
63220;BMP180;49320;52.512;13.448;2023-03-29T09:26:21;101235.00;;;15.80
63220;BMP180;49320;52.512;13.448;2023-03-29T09:29:30;101222.00;;;16.00
63220;BMP180;49320;52.512;13.448;2023-03-29T09:32:05;101234.00;;;16.20
63220;BMP180;49320;52.512;13.448;2023-03-29T09:35:12;101232.00;;;16.30
63220;BMP180;49320;52.512;13.448;2023-03-29T09:37:47;101227.00;;;16.40
63220;BMP180;49320;52.512;13.448;2023-03-29T09:40:27;101227.00;;;16.50
63220;BMP180;49320;52.512;13.448;2023-03-29T09:42:59;101224.00;;;16.60
63220;BMP180;49320;52.512;13.448;2023-03-29T09:45:27;101214.00;;;16.70
63220;BMP180;49320;52.512;13.448;2023-03-29T09:48:02;101218.00;;;16.70
63220;BMP180;49320;52.512;13.448;2023-03-29T09:50:39;101204.00;;;16.80
63220;BMP180;49320;52.512;13.448;2023-03-29T09:53:08;101212.00;;;16.90
63220;BMP180;49320;52.512;13.448;2023-03-29T09:55:36;101210.00;;;17.00
63220;BMP180;49320;52.512;13.448;2023-03-29T09:58:25;101209.00;;;17.10
63220;BMP180;49320;52.512;13.448;2023-03-29T10:00:58;101196.00;;;17.10
63220;BMP180;49320;52.512;13.448;2023-03-29T10:03:30;101209.00;;;17.10
63220;BMP180;49320;52.512;13.448;2023-03-29T10:06:00;101214.00;;;17.10
63220;BMP180;49320;52.512;13.448;2023-03-29T10:08:37;101205.00;;;17.20
63220;BMP180;49320;52.512;13.448;2023-03-29T10:11:18;101203.00;;;17.20
63220;BMP180;49320;52.512;13.448;2023-03-29T10:13:49;101190.00;;;17.30
63220;BMP180;49320;52.512;13.448;2023-03-29T10:16:28;101186.00;;;17.30
63220;BMP180;49320;52.512;13.448;2023-03-29T10:18:55;101182.00;;;17.30
63220;BMP180;49320;52.512;13.448;2023-03-29T10:21:22;101182.00;;;17.30
63220;BMP180;49320;52.512;13.448;2023-03-29T10:23:57;101187.00;;;17.40
63220;BMP180;49320;52.512;13.448;2023-03-29T10:26:32;101179.00;;;17.40
63220;BMP180;49320;52.512;13.448;2023-03-29T10:29:04;101178.00;;;17.40
63220;BMP180;49320;52.512;13.448;2023-03-29T10:31:33;101173.00;;;17.50
63220;BMP180;49320;52.512;13.448;2023-03-29T10:34:05;101172.00;;;17.40
63220;BMP180;49320;52.512;13.448;2023-03-29T10:36:32;101177.00;;;17.40
63220;BMP180;49320;52.512;13.448;2023-03-29T10:39:02;101169.00;;;17.40
63220;BMP180;49320;52.512;13.448;2023-03-29T10:41:33;101157.00;;;17.50
63220;BMP180;49320;52.512;13.448;2023-03-29T10:44:02;101166.00;;;17.50
63220;BMP180;49320;52.512;13.448;2023-03-29T10:46:38;101164.00;;;17.60
63220;BMP180;49320;52.512;13.448;2023-03-29T10:49:18;101151.00;;;17.80
63220;BMP180;49320;52.512;13.448;2023-03-29T10:51:47;101158.00;;;17.90
63220;BMP180;49320;52.512;13.448;2023-03-29T10:54:19;101146.00;;;18.10
63220;BMP180;49320;52.512;13.448;2023-03-29T10:56:57;101156.00;;;18.30
63220;BMP180;49320;52.512;13.448;2023-03-29T10:59:57;101140.00;;;18.50
63220;BMP180;49320;52.512;13.448;2023-03-29T11:02:58;101144.00;;;18.60
63220;BMP180;49320;52.512;13.448;2023-03-29T11:05:46;101145.00;;;18.70
63220;BMP180;49320;52.512;13.448;2023-03-29T11:08:52;101139.00;;;18.90
63220;BMP180;49320;52.512;13.448;2023-03-29T11:11:53;101133.00;;;19.00
63220;BMP180;49320;52.512;13.448;2023-03-29T11:21:08;101131.00;;;19.10
63220;BMP180;49320;52.512;13.448;2023-03-29T11:26:22;101132.00;;;19.20
63220;BMP180;49320;52.512;13.448;2023-03-29T11:29:19;101134.00;;;19.20
63220;BMP180;49320;52.512;13.448;2023-03-29T11:32:13;101135.00;;;19.30
63220;BMP180;49320;52.512;13.448;2023-03-29T11:35:24;101131.00;;;19.50
63220;BMP180;49320;52.512;13.448;2023-03-29T11:46:17;101110.00;;;19.80
63220;BMP180;49320;52.512;13.448;2023-03-29T11:49:08;101113.00;;;19.90
63220;BMP180;49320;52.512;13.448;2023-03-29T11:51:45;101123.00;;;20.00
63220;BMP180;49320;52.512;13.448;2023-03-29T11:57:10;101113.00;;;20.20
63220;BMP180;49320;52.512;13.448;2023-03-29T11:59:44;101115.00;;;20.20
63220;BMP180;49320;52.512;13.448;2023-03-29T12:02:23;101107.00;;;20.20
63220;BMP180;49320;52.512;13.448;2023-03-29T12:04:57;101103.00;;;20.30
63220;BMP180;49320;52.512;13.448;2023-03-29T12:07:32;101107.00;;;20.30
63220;BMP180;49320;52.512;13.448;2023-03-29T12:10:19;101113.00;;;20.40
63220;BMP180;49320;52.512;13.448;2023-03-29T12:13:23;101102.00;;;20.50
63220;BMP180;49320;52.512;13.448;2023-03-29T12:16:25;101091.00;;;20.70
63220;BMP180;49320;52.512;13.448;2023-03-29T12:19:01;101089.00;;;20.80
63220;BMP180;49320;52.512;13.448;2023-03-29T12:21:30;101089.00;;;20.80
63220;BMP180;49320;52.512;13.448;2023-03-29T12:23:59;101084.00;;;20.90
63220;BMP180;49320;52.512;13.448;2023-03-29T12:27:10;101085.00;;;21.00
63220;BMP180;49320;52.512;13.448;2023-03-29T12:33:10;101088.00;;;21.10
63220;BMP180;49320;52.512;13.448;2023-03-29T12:36:08;101096.00;;;21.20
63220;BMP180;49320;52.512;13.448;2023-03-29T12:38:41;101087.00;;;21.10
63220;BMP180;49320;52.512;13.448;2023-03-29T12:41:17;101090.00;;;21.00
63220;BMP180;49320;52.512;13.448;2023-03-29T12:43:45;101080.00;;;21.00
63220;BMP180;49320;52.512;13.448;2023-03-29T12:46:31;101084.00;;;21.00
63220;BMP180;49320;52.512;13.448;2023-03-29T12:49:14;101088.00;;;21.00
63220;BMP180;49320;52.512;13.448;2023-03-29T12:51:47;101082.00;;;20.90
63220;BMP180;49320;52.512;13.448;2023-03-29T12:54:26;101077.00;;;21.00
63220;BMP180;49320;52.512;13.448;2023-03-29T12:57:00;101067.00;;;21.00
63220;BMP180;49320;52.512;13.448;2023-03-29T12:59:38;101060.00;;;21.10
63220;BMP180;49320;52.512;13.448;2023-03-29T13:09:52;101039.00;;;21.10
63220;BMP180;49320;52.512;13.448;2023-03-29T13:12:43;101040.00;;;21.10
63220;BMP180;49320;52.512;13.448;2023-03-29T13:18:15;101052.00;;;21.30
63220;BMP180;49320;52.512;13.448;2023-03-29T13:21:18;101051.00;;;21.30
63220;BMP180;49320;52.512;13.448;2023-03-29T13:30:09;101040.00;;;21.20
63220;BMP180;49320;52.512;13.448;2023-03-29T13:32:54;101049.00;;;21.00
63220;BMP180;49320;52.512;13.448;2023-03-29T13:35:52;101054.00;;;21.00
63220;BMP180;49320;52.512;13.448;2023-03-29T13:38:23;101051.00;;;20.90
63220;BMP180;49320;52.512;13.448;2023-03-29T13:44:23;101057.00;;;20.60
63220;BMP180;49320;52.512;13.448;2023-03-29T13:49:57;101050.00;;;20.40
63220;BMP180;49320;52.512;13.448;2023-03-29T13:52:33;101059.00;;;20.40
63220;BMP180;49320;52.512;13.448;2023-03-29T13:55:13;101048.00;;;20.30
63220;BMP180;49320;52.512;13.448;2023-03-29T13:57:52;101052.00;;;20.30
63220;BMP180;49320;52.512;13.448;2023-03-29T14:00:30;101045.00;;;20.20
63220;BMP180;49320;52.512;13.448;2023-03-29T14:03:00;101043.00;;;20.20
63220;BMP180;49320;52.512;13.448;2023-03-29T14:05:36;101039.00;;;20.20
63220;BMP180;49320;52.512;13.448;2023-03-29T14:08:32;101037.00;;;20.20
63220;BMP180;49320;52.512;13.448;2023-03-29T14:11:05;101037.00;;;20.20
63220;BMP180;49320;52.512;13.448;2023-03-29T14:13:33;101044.00;;;20.20
63220;BMP180;49320;52.512;13.448;2023-03-29T14:16:07;101040.00;;;20.20
63220;BMP180;49320;52.512;13.448;2023-03-29T14:18:39;101046.00;;;20.20
63220;BMP180;49320;52.512;13.448;2023-03-29T14:21:10;101051.00;;;20.10
63220;BMP180;49320;52.512;13.448;2023-03-29T14:23:38;101047.00;;;20.00
63220;BMP180;49320;52.512;13.448;2023-03-29T14:26:17;101049.00;;;19.90
63220;BMP180;49320;52.512;13.448;2023-03-29T14:28:51;101053.00;;;19.90
63220;BMP180;49320;52.512;13.448;2023-03-29T14:31:45;101048.00;;;19.90
63220;BMP180;49320;52.512;13.448;2023-03-29T14:34:15;101041.00;;;19.80
63220;BMP180;49320;52.512;13.448;2023-03-29T14:36:47;101039.00;;;19.80
63220;BMP180;49320;52.512;13.448;2023-03-29T14:39:21;101032.00;;;19.70
63220;BMP180;49320;52.512;13.448;2023-03-29T14:41:55;101034.00;;;19.60
63220;BMP180;49320;52.512;13.448;2023-03-29T14:44:30;101031.00;;;19.60
63220;BMP180;49320;52.512;13.448;2023-03-29T14:47:00;101034.00;;;19.50
63220;BMP180;49320;52.512;13.448;2023-03-29T14:49:28;101031.00;;;19.50
63220;BMP180;49320;52.512;13.448;2023-03-29T14:51:56;101025.00;;;19.50
63220;BMP180;49320;52.512;13.448;2023-03-29T14:54:28;101030.00;;;19.50
63220;BMP180;49320;52.512;13.448;2023-03-29T14:56:55;101027.00;;;19.50
63220;BMP180;49320;52.512;13.448;2023-03-29T15:02:00;101028.00;;;19.40
63220;BMP180;49320;52.512;13.448;2023-03-29T15:05:01;101023.00;;;19.50
63220;BMP180;49320;52.512;13.448;2023-03-29T15:07:33;101035.00;;;19.40
63220;BMP180;49320;52.512;13.448;2023-03-29T15:10:02;101013.00;;;19.40
63220;BMP180;49320;52.512;13.448;2023-03-29T15:12:32;101022.00;;;19.30
63220;BMP180;49320;52.512;13.448;2023-03-29T15:15:00;101028.00;;;19.30
63220;BMP180;49320;52.512;13.448;2023-03-29T15:17:40;101018.00;;;19.30
63220;BMP180;49320;52.512;13.448;2023-03-29T15:20:24;101019.00;;;19.30
63220;BMP180;49320;52.512;13.448;2023-03-29T15:23:02;101014.00;;;19.30